Time;durP1;ratioP1;P1;durP2;ratioP2;P2;SDS_P1;SDS_P2;PMS_P1;PMS_P2;Temp;Humidity;BMP_temperature;BMP_pressure;BME280_temperature;BME280_humidity;BME280_pressure;Samples;Min_cycle;Max_cycle;Signal;HPM_P1;HPM_P2
2022/03/02 00:01:46;;;;;;;14.43;8.55;;;;;;;-0.06;93.13;61993.34;4984462;28;20456;-77
2022/03/02 00:04:12;;;;;;;13.55;9.18;;;;;;;-0.12;94.20;61994.69;4986263;28;20208;-77
2022/03/02 00:06:39;;;;;;;13.57;8.73;;;;;;;-0.21;94.31;61980.47;4986737;28;20287;-76
2022/03/02 00:09:06;;;;;;;12.77;8.80;;;;;;;-0.10;94.06;61991.75;4982437;28;20231;-76
2022/03/02 00:11:33;;;;;;;12.45;8.00;;;;;;;-0.25;93.07;61978.34;4967237;28;20288;-76
2022/03/02 00:14:03;;;;;;;18.05;10.10;;;;;;;-0.34;94.78;61964.66;4976901;28;20227;-76
2022/03/02 00:16:31;;;;;;;13.95;10.02;;;;;;;-0.40;96.33;61958.00;5006835;28;20242;-76
2022/03/02 00:18:59;;;;;;;30.17;15.98;;;;;;;-0.46;97.42;61954.34;4987487;28;20223;-76
2022/03/02 00:21:27;;;;;;;28.17;14.70;;;;;;;-0.32;97.97;61969.19;4986939;28;20232;-76
2022/03/02 00:23:54;;;;;;;26.17;14.07;;;;;;;-0.26;98.08;61972.84;4988040;28;20208;-76
2022/03/02 00:26:21;;;;;;;24.73;14.13;;;;;;;-0.20;97.80;61975.97;4978793;28;22275;-76
2022/03/02 00:28:48;;;;;;;23.42;13.88;;;;;;;-0.10;97.32;61991.75;4996125;28;20206;-77
2022/03/02 00:31:15;;;;;;;19.65;13.27;;;;;;;-0.08;96.49;61991.28;5006094;28;20537;-76
2022/03/02 00:33:44;;;;;;;20.30;13.43;;;;;;;-0.32;97.08;61971.19;5005828;28;20206;-76
2022/03/02 00:36:10;;;;;;;25.17;13.95;;;;;;;-0.31;97.84;61969.72;4982315;28;20272;-76
2022/03/02 00:38:48;;;;;;;21.80;12.50;;;;;;;-0.33;98.98;61967.66;4967677;29;20205;-77
2022/03/02 00:41:15;;;;;;;19.10;12.63;;;;;;;-0.35;99.79;61971.13;4967938;29;20545;-77
2022/03/02 00:43:42;;;;;;;22.00;13.32;;;;;;;-0.45;99.93;61957.88;4975735;28;20254;-75
2022/03/02 00:46:09;;;;;;;19.85;12.20;;;;;;;-0.70;100.00;61930.28;4987928;28;20512;-76
2022/03/02 00:48:37;;;;;;;21.13;12.65;;;;;;;-0.72;100.00;61923.22;4991589;28;20405;-75
2022/03/02 00:51:06;;;;;;;21.65;13.57;;;;;;;-0.93;100.00;61904.22;4992094;28;20227;-76
2022/03/02 00:53:34;;;;;;;24.52;14.43;;;;;;;-1.00;100.00;61897.06;4986927;28;20224;-75
2022/03/02 00:56:01;;;;;;;30.75;18.15;;;;;;;-1.07;100.00;61889.41;4990501;28;20223;-75
2022/03/02 00:58:27;;;;;;;28.60;17.25;;;;;;;-1.11;100.00;61885.28;4985404;28;20283;-75
2022/03/02 01:00:54;;;;;;;29.65;16.52;;;;;;;-1.12;100.00;61889.28;4970162;28;20232;-76
2022/03/02 01:03:21;;;;;;;29.25;18.50;;;;;;;-1.04;100.00;61895.47;4984056;28;20287;-75
2022/03/02 01:05:48;;;;;;;29.77;17.25;;;;;;;-1.06;100.00;61887.91;4988630;28;20203;-75
2022/03/02 01:08:17;;;;;;;29.85;18.40;;;;;;;-1.10;100.00;61886.81;4990559;28;20226;-74
2022/03/02 01:10:44;;;;;;;37.85;17.65;;;;;;;-1.17;100.00;61882.16;4987826;28;20220;-75
2022/03/02 01:13:10;;;;;;;34.72;18.40;;;;;;;-1.20;100.00;61879.59;4989883;28;20220;-76
2022/03/02 01:15:38;;;;;;;29.98;18.02;;;;;;;-1.13;100.00;61886.25;4987887;28;20218;-76
2022/03/02 01:18:05;;;;;;;28.48;16.90;;;;;;;-1.16;100.00;61886.19;4987196;28;20220;-77
2022/03/02 01:20:31;;;;;;;36.17;17.77;;;;;;;-1.26;100.00;61870.97;4983222;28;20240;-76
2022/03/02 01:22:58;;;;;;;29.15;16.95;;;;;;;-1.36;100.00;61860.72;5003781;28;20247;-76
2022/03/02 01:25:27;;;;;;;27.35;15.90;;;;;;;-1.41;100.00;61855.63;5010158;28;20233;-75
2022/03/02 01:27:54;;;;;;;25.13;15.02;;;;;;;-1.46;100.00;61854.97;4988805;28;20220;-75
2022/03/02 01:30:21;;;;;;;23.77;14.32;;;;;;;-1.50;100.00;61848.41;4981127;28;20563;-75
2022/03/02 01:32:48;;;;;;;25.73;13.43;;;;;;;-1.53;100.00;61843.34;4985729;28;20220;-75
2022/03/02 01:35:15;;;;;;;20.08;12.90;;;;;;;-1.53;100.00;61848.31;4995624;28;20210;-76
2022/03/02 01:37:42;;;;;;;18.38;11.18;;;;;;;-1.52;100.00;61841.84;5001103;28;20261;-76
2022/03/02 01:40:10;;;;;;;16.15;10.95;;;;;;;-1.54;100.00;61849.28;4978202;28;20232;-75
2022/03/02 01:42:39;;;;;;;15.23;9.88;;;;;;;-1.53;100.00;61838.34;4986859;28;20263;-74
2022/03/02 01:45:08;;;;;;;13.88;8.52;;;;;;;-1.60;99.59;61836.16;5002751;28;20203;-76
2022/03/02 01:47:35;;;;;;;11.40;7.72;;;;;;;-1.64;99.13;61834.06;4994577;28;20268;-75
2022/03/02 01:50:03;;;;;;;7.65;6.80;;;;;;;-1.64;98.83;61831.56;4982713;28;20216;-75
2022/03/02 01:52:30;;;;;;;10.35;7.10;;;;;;;-1.73;98.62;61827.88;4984314;28;20270;-74
2022/03/02 01:54:57;;;;;;;11.40;7.55;;;;;;;-1.78;98.35;61820.25;4999704;28;20246;-76
2022/03/02 01:57:25;;;;;;;10.95;7.40;;;;;;;-1.83;98.38;61812.63;4987788;28;20224;-76
2022/03/02 01:59:53;;;;;;;10.02;6.50;;;;;;;-1.91;98.13;61811.94;4983538;28;20224;-75
2022/03/02 02:02:20;;;;;;;8.18;6.90;;;;;;;-1.97;97.89;61800.81;4976976;28;20225;-75
2022/03/02 02:04:47;;;;;;;9.27;7.28;;;;;;;-2.05;97.97;61792.63;4990387;28;20259;-75
2022/03/02 02:07:14;;;;;;;11.60;6.75;;;;;;;-2.02;97.41;61797.69;4978055;28;20287;-75
2022/03/02 02:09:41;;;;;;;9.02;6.65;;;;;;;-2.09;96.56;61796.03;4984879;28;20406;-76
2022/03/02 02:12:09;;;;;;;8.98;6.72;;;;;;;-2.07;95.91;61795.06;4983973;28;20267;-76
2022/03/02 02:14:36;;;;;;;12.90;6.93;;;;;;;-2.13;95.77;61781.44;4985965;28;20209;-76
2022/03/02 02:17:04;;;;;;;10.95;6.53;;;;;;;-2.16;95.58;61776.41;4966882;28;20286;-76
2022/03/02 02:19:31;;;;;;;18.15;7.47;;;;;;;-2.19;95.40;61780.31;4965566;29;20239;-76
2022/03/02 02:21:59;;;;;;;13.02;6.93;;;;;;;-2.31;95.23;61768.53;4982065;28;20235;-76
2022/03/02 02:24:26;;;;;;;8.13;5.70;;;;;;;-2.35;95.78;61759.47;4980817;28;20209;-75
2022/03/02 02:26:54;;;;;;;7.03;5.68;;;;;;;-2.42;95.82;61757.81;4994754;28;20235;-75
2022/03/02 02:29:23;;;;;;;7.95;6.18;;;;;;;-2.45;95.99;61749.75;4994680;28;20211;-74
2022/03/02 02:31:50;;;;;;;10.27;7.13;;;;;;;-2.44;95.70;61750.78;4982716;28;20263;-76
2022/03/02 02:34:17;;;;;;;6.45;5.40;;;;;;;-2.51;95.70;61743.63;4981765;28;20250;-78
2022/03/02 02:36:44;;;;;;;9.25;5.80;;;;;;;-2.50;95.66;61756.59;4984486;28;20220;-76
2022/03/02 02:39:13;;;;;;;5.25;4.72;;;;;;;-2.53;95.75;61738.56;4985133;28;20239;-76
2022/03/02 02:41:40;;;;;;;6.55;4.75;;;;;;;-2.57;95.64;61737.00;4982212;28;20254;-75
2022/03/02 02:44:07;;;;;;;6.97;5.13;;;;;;;-2.62;95.67;61732.38;4984031;28;20552;-75
2022/03/02 02:46:34;;;;;;;7.80;5.20;;;;;;;-2.59;95.18;61737.94;4984233;28;20220;-76
2022/03/02 02:49:01;;;;;;;8.15;5.15;;;;;;;-2.65;95.29;61731.28;4982416;28;20243;-75
2022/03/02 02:51:28;;;;;;;6.43;5.72;;;;;;;-2.58;94.85;61738.44;4994222;28;20204;-75
2022/03/02 02:53:54;;;;;;;7.47;5.40;;;;;;;-2.58;94.70;61733.47;4984656;28;20493;-76
2022/03/02 02:56:23;;;;;;;8.07;5.15;;;;;;;-2.61;94.41;61733.41;4984233;28;20204;-74
2022/03/02 02:58:49;;;;;;;6.85;5.05;;;;;;;-2.67;94.59;61726.75;4981906;28;20211;-75
2022/03/02 03:01:17;;;;;;;7.13;5.60;;;;;;;-2.62;94.31;61736.84;4980610;28;20236;-76
2022/03/02 03:03:43;;;;;;;7.25;5.60;;;;;;;-2.59;93.66;61737.94;4985341;28;20227;-76
2022/03/02 03:06:10;;;;;;;5.85;5.00;;;;;;;-2.56;93.35;61740.50;4985608;28;20239;-76
2022/03/02 03:08:37;;;;;;;6.85;5.75;;;;;;;-2.58;93.59;61741.47;4987081;28;20263;-75
2022/03/02 03:11:05;;;;;;;9.50;5.70;;;;;;;-2.52;92.94;61750.06;4985377;28;20250;-75
2022/03/02 03:13:33;;;;;;;6.88;5.15;;;;;;;-2.49;93.12;61750.16;5004814;28;20216;-75
2022/03/02 03:16:00;;;;;;;6.70;5.45;;;;;;;-2.58;93.03;61736.47;4987485;28;20235;-75
2022/03/02 03:18:27;;;;;;;6.90;5.95;;;;;;;-2.63;93.35;61733.84;4985234;28;20228;-75
2022/03/02 03:20:54;;;;;;;6.25;5.45;;;;;;;-2.67;93.79;61727.28;4985770;28;20309;-75
2022/03/02 03:23:21;;;;;;;9.15;5.15;;;;;;;-2.62;93.84;61739.84;4988467;28;20431;-75
2022/03/02 03:25:48;;;;;;;5.38;4.85;;;;;;;-2.67;94.11;61726.75;4985884;28;20204;-76
2022/03/02 03:28:15;;;;;;;6.28;5.65;;;;;;;-2.70;94.38;61724.22;4995473;28;20579;-75
2022/03/02 03:30:43;;;;;;;7.32;5.65;;;;;;;-2.72;94.50;61729.13;4969238;28;20204;-76
2022/03/02 03:33:10;;;;;;;6.20;5.40;;;;;;;-2.75;94.76;61724.09;4972032;28;20528;-76
2022/03/02 03:35:37;;;;;;;6.50;5.70;;;;;;;-2.78;94.95;61716.03;4975492;28;20251;-76
2022/03/02 03:38:04;;;;;;;7.35;5.10;;;;;;;-2.80;95.34;61715.97;4985906;28;20224;-76
2022/03/02 03:40:31;;;;;;;10.50;5.45;;;;;;;-2.78;95.60;61713.03;4988892;28;20270;-75
2022/03/02 03:42:58;;;;;;;10.82;6.22;;;;;;;-2.84;95.83;61712.41;4986394;28;20251;-75
2022/03/02 03:45:26;;;;;;;5.13;4.70;;;;;;;-2.85;96.20;61708.38;5003265;28;20251;-75
2022/03/02 03:47:54;;;;;;;8.38;5.72;;;;;;;-2.88;96.60;61710.28;4990164;28;20262;-76
2022/03/02 03:50:22;;;;;;;9.18;6.20;;;;;;;-2.83;96.91;61717.88;4994255;28;20207;-76
2022/03/02 03:52:49;;;;;;;6.85;5.78;;;;;;;-2.75;96.95;61721.06;4997100;28;20223;-76
2022/03/02 03:55:16;;;;;;;8.55;5.43;;;;;;;-2.71;97.15;61727.66;5006489;28;20451;-76
2022/03/02 03:57:43;;;;;;;9.48;5.50;;;;;;;-2.63;98.05;61731.38;4990174;28;20224;-75
2022/03/02 04:00:13;;;;;;;7.05;6.35;;;;;;;-2.60;98.69;61733.91;4986985;28;20204;-76
2022/03/02 04:02:40;;;;;;;8.70;5.60;;;;;;;-2.49;100.00;61745.69;4987387;28;20278;-77
2022/03/02 04:05:09;;;;;;;5.53;4.22;;;;;;;-2.26;100.00;61768.66;4987996;28;20268;-75
2022/03/02 04:07:38;;;;;;;5.47;3.97;;;;;;;-2.16;100.00;61776.41;4985134;28;20231;-75
2022/03/02 04:10:05;;;;;;;6.78;5.07;;;;;;;-2.03;100.00;61797.19;4987745;28;20200;-76
2022/03/02 04:12:32;;;;;;;6.63;4.22;;;;;;;-1.83;100.00;61822.63;4983603;28;20224;-75
2022/03/02 04:14:59;;;;;;;5.45;4.63;;;;;;;-1.77;100.00;61820.75;4985234;28;20208;-76
2022/03/02 04:17:25;;;;;;;5.47;4.57;;;;;;;-1.60;100.00;61838.16;4999609;28;20270;-76
2022/03/02 04:19:53;;;;;;;7.82;4.90;;;;;;;-1.56;100.00;61845.25;5000228;28;20200;-77
2022/03/02 04:22:21;;;;;;;6.78;5.50;;;;;;;-1.47;100.00;61849.47;4985286;28;20307;-75
2022/03/02 04:24:48;;;;;;;5.20;4.50;;;;;;;-1.38;100.00;61861.19;4987436;28;20499;-77
2022/03/02 04:27:15;;;;;;;5.35;4.85;;;;;;;-1.41;100.00;61858.09;5006519;28;20223;-75
2022/03/02 04:29:42;;;;;;;7.15;4.80;;;;;;;-1.36;100.00;61862.72;4992274;28;20200;-76
2022/03/02 04:32:09;;;;;;;5.20;4.70;;;;;;;-1.40;100.00;61854.13;4984911;28;20216;-75
2022/03/02 04:34:36;;;;;;;8.82;4.95;;;;;;;-1.36;100.00;61860.22;4999145;28;20514;-76
2022/03/02 04:37:04;;;;;;;5.57;5.03;;;;;;;-1.29;100.00;61867.38;5006558;28;20258;-76
2022/03/02 04:39:33;;;;;;;6.75;6.13;;;;;;;-1.37;100.00;61859.72;4990640;28;20266;-75
2022/03/02 04:42:00;;;;;;;7.90;5.50;;;;;;;-1.24;100.00;61873.00;4992038;28;20242;-76
2022/03/02 04:44:27;;;;;;;7.95;6.15;;;;;;;-1.17;100.00;61884.16;4999533;28;20217;-75
2022/03/02 04:46:54;;;;;;;7.90;5.32;;;;;;;-1.21;100.00;61878.56;4994690;28;20276;-76
2022/03/02 04:49:21;;;;;;;5.45;4.25;;;;;;;-1.16;100.00;61881.19;4985964;28;20200;-75
2022/03/02 04:51:49;;;;;;;5.88;4.93;;;;;;;-1.06;100.00;61892.91;4995385;28;20227;-75
2022/03/02 04:57:00;;;;;;;7.80;4.88;;;;;;;-1.00;100.00;61896.56;4986909;28;20216;-75
2022/03/02 04:59:26;;;;;;;5.78;4.85;;;;;;;-0.91;100.00;61906.28;4975607;28;20234;-74
2022/03/02 05:01:53;;;;;;;4.88;4.40;;;;;;;-0.95;100.00;61899.19;4985805;28;20238;-74
2022/03/02 05:04:20;;;;;;;4.65;3.72;;;;;;;-0.90;100.00;61906.78;4987064;28;20438;-75
2022/03/02 05:06:48;;;;;;;5.13;3.92;;;;;;;-0.88;100.00;61906.34;4986476;28;20216;-77
2022/03/02 05:09:15;;;;;;;5.45;4.80;;;;;;;-1.05;100.00;61891.44;4983759;28;20204;-74
2022/03/02 05:11:42;;;;;;;9.98;5.35;;;;;;;-0.91;100.00;61903.78;4981789;28;20227;-74
2022/03/02 05:14:10;;;;;;;4.43;3.95;;;;;;;-0.88;100.00;61904.34;4977854;28;20260;-75
2022/03/02 05:16:37;;;;;;;6.28;4.95;;;;;;;-0.92;100.00;61904.75;4966372;28;20545;-74
2022/03/02 05:19:04;;;;;;;5.65;5.10;;;;;;;-0.92;100.00;61904.75;4981961;28;20207;-75
2022/03/02 05:21:31;;;;;;;5.95;5.35;;;;;;;-0.93;100.00;61904.22;4982006;28;20228;-74
2022/03/02 05:23:58;;;;;;;11.10;5.75;;;;;;;-0.81;100.00;61918.50;5000693;28;20249;-75
2022/03/02 05:26:25;;;;;;;6.75;5.43;;;;;;;-0.85;100.00;61914.41;4990427;28;20442;-75
2022/03/02 05:28:52;;;;;;;6.85;4.97;;;;;;;-0.97;100.00;61897.13;4983050;28;20208;-75
2022/03/02 05:31:21;;;;;;;7.32;6.10;;;;;;;-0.96;100.00;61900.63;5001398;28;20210;-74
2022/03/02 05:33:48;;;;;;;6.68;4.88;;;;;;;-1.01;100.00;61901.03;4999374;28;20266;-75
2022/03/02 05:36:15;;;;;;;6.38;5.63;;;;;;;-0.89;100.00;61907.81;4982474;28;20254;-75
2022/03/02 05:38:42;;;;;;;8.95;6.25;;;;;;;-0.91;100.00;61908.78;4983675;28;20387;-75
2022/03/02 05:41:09;;;;;;;8.63;6.30;;;;;;;-0.79;100.00;61916.06;5003631;28;20245;-74
2022/03/02 05:43:36;;;;;;;8.00;5.80;;;;;;;-0.76;100.00;61921.13;5004987;28;20439;-75
2022/03/02 05:46:02;;;;;;;8.00;6.22;;;;;;;-0.77;100.00;61925.09;4989903;28;20243;-75
2022/03/02 05:48:31;;;;;;;10.05;6.78;;;;;;;-0.71;100.00;61931.25;4982381;28;20283;-75
2022/03/02 05:50:58;;;;;;;8.60;6.80;;;;;;;-0.68;100.00;61932.34;4983907;28;20267;-75
2022/03/02 05:53:25;;;;;;;10.18;6.50;;;;;;;-0.59;100.00;61941.56;4982468;28;20279;-75
2022/03/02 05:55:52;;;;;;;7.70;6.32;;;;;;;-0.51;100.00;61951.72;4974442;28;20272;-74
2022/03/02 05:58:18;;;;;;;10.32;6.85;;;;;;;-0.51;100.00;61946.72;4982610;28;20536;-75
2022/03/02 06:00:45;;;;;;;8.77;6.28;;;;;;;-0.38;100.00;61960.53;4991836;28;20199;-74
2022/03/02 06:03:13;;;;;;;6.88;5.95;;;;;;;-0.30;100.00;61968.75;4997546;28;20228;-75
2022/03/02 06:05:41;;;;;;;8.13;5.72;;;;;;;-0.27;100.00;61974.31;4980509;28;20519;-76
2022/03/02 06:08:10;;;;;;;8.32;6.55;;;;;;;-0.24;100.00;61977.41;4982463;28;20427;-74
2022/03/02 06:10:37;;;;;;;8.13;6.22;;;;;;;-0.10;100.00;61991.75;4979781;28;20412;-75
2022/03/02 06:13:05;;;;;;;6.50;5.57;;;;;;;-0.09;100.00;61992.75;4984138;28;20231;-75
2022/03/02 06:15:33;;;;;;;8.00;6.07;;;;;;;0.04;100.00;62008.06;4974476;28;20457;-74
2022/03/02 06:18:03;;;;;;;7.88;5.80;;;;;;;-0.03;100.00;61998.41;4983188;28;20224;-76
2022/03/02 06:20:31;;;;;;;6.50;5.80;;;;;;;0.13;100.00;62012.28;4976931;28;20244;-75
2022/03/02 06:22:59;;;;;;;6.50;5.90;;;;;;;0.15;100.00;62016.34;4983535;28;20314;-75
2022/03/02 06:25:27;;;;;;;6.75;5.95;;;;;;;0.25;99.86;62027.09;4981604;28;20208;-76
2022/03/02 06:27:54;;;;;;;9.50;6.47;;;;;;;0.25;99.52;62024.59;4991771;28;20223;-75
2022/03/02 06:30:21;;;;;;;6.68;5.95;;;;;;;0.22;99.00;62016.53;4991759;28;20217;-75
2022/03/02 06:32:48;;;;;;;7.60;6.18;;;;;;;0.26;98.98;62027.63;4991971;28;20247;-74
2022/03/02 06:35:15;;;;;;;7.40;5.80;;;;;;;0.39;98.55;62038.44;4992192;28;20216;-74
2022/03/02 06:37:42;;;;;;;10.05;6.85;;;;;;;0.19;99.74;62027.94;4982226;28;20217;-76
2022/03/02 06:40:18;;;;;;;6.93;5.90;;;;;;;0.36;99.66;62033.38;4990435;28;20418;-76
2022/03/02 06:43:03;;;;;;;8.95;6.65;;;;;;;0.54;99.24;62048.78;4979856;28;20236;-75
2022/03/02 06:45:51;;;;;;;9.75;6.75;;;;;;;0.52;99.30;62051.78;4969744;28;20206;-75
2022/03/02 06:48:23;;;;;;;11.30;7.35;;;;;;;0.65;98.55;62060.09;4976909;28;20579;-75
2022/03/02 06:51:07;;;;;;;9.90;7.35;;;;;;;0.24;98.17;62023.06;4992030;28;20202;-76
2022/03/02 06:53:35;;;;;;;11.98;7.20;;;;;;;0.42;98.66;62044.53;4995795;28;20200;-75
2022/03/02 06:56:07;;;;;;;7.00;6.28;;;;;;;0.34;99.35;62033.31;4984988;28;20396;-76
2022/03/02 06:58:41;;;;;;;9.57;7.20;;;;;;;0.35;98.25;62034.84;4987330;28;20259;-77
2022/03/02 07:01:10;;;;;;;10.13;6.80;;;;;;;0.54;98.26;62054.31;4972433;28;20203;-75
2022/03/02 07:03:45;;;;;;;9.20;7.03;;;;;;;0.42;97.82;62042.03;4988817;28;20437;-74
2022/03/02 07:06:13;;;;;;;10.38;6.70;;;;;;;0.48;98.12;62045.16;4991575;28;20218;-76
2022/03/02 07:08:44;;;;;;;8.95;7.13;;;;;;;0.83;97.98;62086.03;4989483;28;20204;-75
2022/03/02 07:11:12;;;;;;;9.32;7.03;;;;;;;0.38;97.92;62037.91;4988875;28;20243;-77
2022/03/02 07:13:39;;;;;;;10.38;8.07;;;;;;;0.64;98.29;62066.56;4988118;28;20205;-76
2022/03/02 07:16:06;;;;;;;9.40;7.20;;;;;;;0.79;97.94;62079.44;4985508;28;20208;-77
2022/03/02 07:18:34;;;;;;;9.70;7.45;;;;;;;0.94;96.51;62102.34;4991106;28;20216;-75
2022/03/02 07:21:06;;;;;;;14.55;8.30;;;;;;;1.36;95.95;62139.91;4995446;28;20239;-75
2022/03/02 07:23:35;;;;;;;9.35;7.35;;;;;;;1.67;93.05;62169.72;4992292;28;20235;-75
2022/03/02 07:26:04;;;;;;;12.38;7.15;;;;;;;1.76;90.63;62175.94;4989375;28;20247;-75
2022/03/02 07:28:36;;;;;;;11.45;7.82;;;;;;;1.84;89.46;62189.69;4983551;28;20248;-75
2022/03/02 07:31:09;;;;;;;9.05;7.18;;;;;;;1.85;88.79;62193.22;4984785;28;20204;-75
2022/03/02 07:33:41;;;;;;;11.20;8.07;;;;;;;1.90;88.96;62192.81;4990107;28;20517;-77
2022/03/02 07:36:09;;;;;;;10.52;8.23;;;;;;;1.60;88.82;62165.06;4987956;28;20200;-74
2022/03/02 07:38:37;;;;;;;9.60;7.63;;;;;;;1.63;88.70;62168.13;4984474;28;20220;-74
2022/03/02 07:41:07;;;;;;;12.32;8.05;;;;;;;1.74;88.38;62176.41;4973603;28;20208;-74
2022/03/02 07:43:38;;;;;;;12.27;7.25;;;;;;;1.16;91.10;62122.41;4986634;28;20238;-76
2022/03/02 07:46:05;;;;;;;11.18;8.57;;;;;;;0.96;91.34;62096.88;4987872;28;20201;-73
2022/03/02 07:48:33;;;;;;;15.73;8.32;;;;;;;1.15;91.60;62119.41;4986061;28;20228;-77
2022/03/02 07:51:02;;;;;;;15.00;8.43;;;;;;;1.15;90.97;62114.38;4986736;28;20235;-77
2022/03/02 07:53:33;;;;;;;9.10;7.35;;;;;;;0.71;93.63;62071.22;4988320;28;20427;-74
2022/03/02 07:56:04;;;;;;;12.15;7.72;;;;;;;0.26;94.75;62027.63;4986434;28;20223;-75
2022/03/02 07:58:31;;;;;;;13.88;9.52;;;;;;;0.05;98.52;62004.09;4995359;28;20216;-79
2022/03/02 08:01:00;;;;;;;14.70;8.73;;;;;;;0.16;98.98;62017.34;5000268;28;20196;-79
2022/03/02 08:03:29;;;;;;;10.82;8.25;;;;;;;0.02;98.91;62000.53;4989979;28;20255;-79
2022/03/02 08:06:00;;;;;;;11.07;5.70;;;;;;;-0.01;100.00;62000.44;4996966;28;20197;-79
2022/03/02 08:08:27;;;;;;;11.60;8.02;;;;;;;-0.21;100.00;61980.47;4996819;28;20258;-80
2022/03/02 08:10:54;;;;;;;14.00;8.50;;;;;;;-0.06;100.00;61990.84;4992238;28;20193;-81
2022/03/02 08:13:23;;;;;;;19.75;9.43;;;;;;;0.04;100.00;62005.56;4993054;28;20244;-81
2022/03/02 08:15:51;;;;;;;12.55;8.70;;;;;;;-0.13;100.00;61988.66;4986133;28;20205;-80
2022/03/02 08:18:20;;;;;;;12.00;9.18;;;;;;;-0.05;100.00;61993.84;4972370;29;20240;-80
2022/03/02 08:20:50;;;;;;;19.40;9.88;;;;;;;0.31;100.00;62025.22;4987546;28;20196;-80
2022/03/02 08:23:19;;;;;;;14.73;9.63;;;;;;;0.65;100.00;62065.59;4989451;28;20219;-80
2022/03/02 08:25:47;;;;;;;13.02;7.32;;;;;;;0.33;98.08;62030.28;4984293;28;20212;-80
2022/03/02 08:28:16;;;;;;;15.30;9.45;;;;;;;0.67;99.43;62074.66;4982984;28;20244;-79
2022/03/02 08:30:46;;;;;;;18.00;9.63;;;;;;;0.58;97.45;62057.91;4969269;28;20201;-80
2022/03/02 08:33:19;;;;;;;12.98;8.75;;;;;;;0.77;98.21;62074.88;4978852;28;20370;-78
2022/03/02 08:35:51;;;;;;;15.23;9.13;;;;;;;0.37;99.71;62036.38;4980271;28;20200;-80
2022/03/02 08:38:18;;;;;;;13.02;8.95;;;;;;;0.39;100.00;62038.44;4980071;28;20232;-79
2022/03/02 08:40:45;;;;;;;16.10;10.85;;;;;;;0.41;100.00;62043.00;4977022;28;20533;-79
2022/03/02 08:43:15;;;;;;;17.45;10.70;;;;;;;0.52;99.78;62057.28;4983698;28;20240;-80
2022/03/02 08:45:44;;;;;;;16.77;10.02;;;;;;;0.85;99.73;62086.09;4989072;28;20204;-79
2022/03/02 08:48:12;;;;;;;14.95;9.77;;;;;;;1.27;97.49;62130.66;4990705;28;20229;-78
2022/03/02 08:50:44;;;;;;;19.20;10.15;;;;;;;1.40;94.93;62144.53;4982141;28;20232;-82
2022/03/02 08:53:20;;;;;;;15.30;9.73;;;;;;;1.57;94.08;62161.97;4989453;28;20557;-79
2022/03/02 08:55:50;;;;;;;14.48;9.55;;;;;;;2.26;91.18;62232.81;4992686;28;20196;-78
2022/03/02 08:58:18;;;;;;;12.40;9.15;;;;;;;1.66;91.34;62168.69;4987445;28;20287;-77
2022/03/02 09:00:53;;;;;;;13.43;9.38;;;;;;;2.00;91.10;62206.09;4993984;28;20204;-77
2022/03/02 09:03:22;;;;;;;13.35;9.00;;;;;;;1.77;88.89;62182.00;4983024;28;20258;-75
2022/03/02 09:05:49;;;;;;;11.45;7.43;;;;;;;0.97;91.18;62098.41;4981945;28;20217;-73
2022/03/02 09:08:18;;;;;;;15.82;8.45;;;;;;;0.88;95.22;62093.69;4987093;28;20255;-74
2022/03/02 09:10:45;;;;;;;10.63;7.50;;;;;;;1.27;94.36;62130.66;4994591;28;20192;-74
2022/03/02 09:13:13;;;;;;;13.05;8.93;;;;;;;1.21;94.92;62125.03;4983448;28;20232;-73
2022/03/02 09:15:40;;;;;;;15.98;10.75;;;;;;;1.09;95.19;62110.72;4986811;28;20200;-74
2022/03/02 09:18:08;;;;;;;17.95;10.00;;;;;;;1.47;94.88;62151.69;4988212;28;20524;-74
2022/03/02 09:20:35;;;;;;;16.30;11.02;;;;;;;2.03;93.21;62208.69;4987374;28;20227;-74
2022/03/02 09:23:04;;;;;;;19.80;10.80;;;;;;;1.50;91.55;62154.28;4982887;28;20243;-74
2022/03/02 09:25:33;;;;;;;13.68;8.18;;;;;;;1.05;93.12;62106.63;4982764;28;20425;-75
2022/03/02 09:28:00;;;;;;;16.15;9.88;;;;;;;1.32;93.95;62133.28;4985142;28;20279;-73
2022/03/02 09:30:27;;;;;;;12.23;5.82;;;;;;;1.11;90.72;62115.28;4982812;28;20215;-73
2022/03/02 09:32:59;;;;;;;18.75;10.52;;;;;;;0.98;94.31;62103.94;4983865;28;20254;-77
2022/03/02 09:35:31;;;;;;;17.13;10.25;;;;;;;1.48;92.74;62152.22;4985272;28;20415;-73
2022/03/02 09:37:59;;;;;;;17.83;10.40;;;;;;;1.33;92.21;62136.84;4985537;28;20548;-73
2022/03/02 09:40:28;;;;;;;15.57;10.02;;;;;;;1.76;88.44;62181.47;4982657;28;20204;-73
2022/03/02 09:42:59;;;;;;;15.02;9.48;;;;;;;1.75;86.74;62174.91;4985038;28;20232;-72
2022/03/02 09:45:28;;;;;;;15.60;10.07;;;;;;;1.80;86.89;62183.06;4985242;28;20231;-73
2022/03/02 09:47:57;;;;;;;10.93;7.07;;;;;;;1.77;85.82;62182.50;4984577;28;20279;-74
2022/03/02 09:50:26;;;;;;;14.90;9.68;;;;;;;1.89;88.89;62194.31;4979749;28;20376;-72
2022/03/02 09:52:55;;;;;;;15.75;10.20;;;;;;;2.37;87.00;62241.09;4985089;28;20255;-73
2022/03/02 09:55:24;;;;;;;10.70;7.40;;;;;;;1.84;84.92;62186.66;4984557;28;20204;-73
2022/03/02 09:57:53;;;;;;;15.93;9.95;;;;;;;2.05;87.13;62211.25;4982225;28;20228;-73
2022/03/02 10:00:23;;;;;;;18.30;10.32;;;;;;;2.08;85.45;62211.31;4983149;28;20204;-73
2022/03/02 10:02:52;;;;;;;15.13;9.50;;;;;;;2.30;83.28;62229.38;4984146;28;20236;-74
2022/03/02 10:05:22;;;;;;;9.57;7.05;;;;;;;2.23;83.46;62229.72;4984136;28;20207;-72
2022/03/02 10:07:57;;;;;;;14.85;9.50;;;;;;;2.29;83.91;62235.38;4976573;28;20254;-74
2022/03/02 10:10:24;;;;;;;15.02;9.20;;;;;;;2.64;82.33;62268.81;4983241;28;20195;-73
2022/03/02 10:12:52;;;;;;;12.32;7.90;;;;;;;2.95;77.13;62302.69;4971179;28;20271;-75
2022/03/02 10:15:19;;;;;;;13.88;8.27;;;;;;;3.00;77.63;62305.31;4966789;28;20256;-75
2022/03/02 10:17:51;;;;;;;10.90;8.73;;;;;;;3.13;77.67;62321.69;4979951;28;20239;-74
2022/03/02 10:20:20;;;;;;;11.63;8.82;;;;;;;3.18;76.60;62321.78;4984192;28;20188;-74
2022/03/02 10:23:09;;;;;;;13.27;8.30;;;;;;;2.38;81.18;62242.13;4985908;28;20251;-74
2022/03/02 10:25:56;;;;;;;17.30;10.88;;;;;;;2.02;87.91;62210.66;4984090;28;20216;-74
2022/03/02 10:28:27;;;;;;;21.42;11.43;;;;;;;2.76;85.49;62283.66;4988260;28;20232;-74
2022/03/02 10:31:14;;;;;;;20.90;12.65;;;;;;;2.68;84.27;62274.91;4988218;28;20439;-74
2022/03/02 10:33:48;;;;;;;19.23;11.40;;;;;;;2.84;82.87;62296.91;4988338;28;20429;-75
2022/03/02 10:36:16;;;;;;;20.60;12.20;;;;;;;2.38;84.34;62250.16;4986296;28;20231;-74
2022/03/02 10:38:51;;;;;;;17.20;11.02;;;;;;;2.70;85.27;62274.97;4988422;28;20200;-74
2022/03/02 10:41:20;;;;;;;16.83;11.02;;;;;;;3.01;79.92;62306.84;4988057;28;20187;-75
2022/03/02 10:43:58;;;;;;;13.52;9.27;;;;;;;2.38;82.72;62244.13;4986001;28;20436;-75
2022/03/02 10:46:26;;;;;;;17.77;11.57;;;;;;;1.64;86.48;62166.63;4988672;28;20477;-76
2022/03/02 10:49:04;;;;;;;17.08;11.20;;;;;;;2.08;87.80;62214.34;4984916;28;20203;-74
2022/03/02 10:51:32;;;;;;;14.77;10.43;;;;;;;2.78;82.60;62283.19;4989024;28;20520;-74
2022/03/02 10:54:03;;;;;;;17.65;9.85;;;;;;;2.15;82.32;62223.50;4985494;28;20200;-75
2022/03/02 10:56:38;;;;;;;23.55;12.63;;;;;;;2.36;84.13;62240.56;4988617;28;20220;-74
2022/03/02 10:59:08;;;;;;;14.65;9.13;;;;;;;2.36;81.43;62243.06;4988729;28;20223;-75
2022/03/02 11:01:36;;;;;;;16.50;10.73;;;;;;;2.93;80.48;62298.09;4986398;28;20224;-75
2022/03/02 11:04:07;;;;;;;13.43;9.93;;;;;;;2.24;79.52;62230.25;4987358;28;20236;-75
2022/03/02 11:06:35;;;;;;;15.68;10.20;;;;;;;2.57;82.65;62266.66;4988286;28;20230;-75
2022/03/02 11:09:02;;;;;;;17.17;8.98;;;;;;;2.94;78.17;62304.16;4989871;28;20204;-75
2022/03/02 11:11:33;;;;;;;15.48;9.65;;;;;;;2.89;75.58;62299.00;4987537;28;20232;-75
2022/03/02 11:14:00;;;;;;;16.77;9.70;;;;;;;3.28;73.56;62337.09;4984328;28;20209;-74
2022/03/02 11:16:27;;;;;;;17.27;10.85;;;;;;;3.46;72.19;62355.09;4972788;28;20255;-75
2022/03/02 11:18:54;;;;;;;13.40;9.32;;;;;;;3.61;69.04;62368.00;4970150;29;20393;-76
2022/03/02 11:21:29;;;;;;;17.08;10.13;;;;;;;3.24;72.33;62329.97;4974826;28;20271;-75
2022/03/02 11:23:58;;;;;;;17.20;10.75;;;;;;;3.50;71.68;62359.22;4988263;28;20235;-75
2022/03/02 11:26:28;;;;;;;12.43;9.27;;;;;;;3.75;69.02;62381.88;4975313;28;20236;-75
2022/03/02 11:28:57;;;;;;;14.18;9.52;;;;;;;3.89;68.20;62401.31;4968447;28;20201;-74
2022/03/02 11:31:27;;;;;;;14.35;8.98;;;;;;;3.65;67.60;62374.13;4981941;28;20204;-75
2022/03/02 11:34:13;;;;;;;15.57;9.25;;;;;;;3.81;66.41;62388.59;4991442;28;20304;-75
2022/03/02 11:36:44;;;;;;;13.15;7.43;;;;;;;3.80;64.59;62389.53;4996665;28;20247;-75